sensor_id;sensor_type;location;lat;lon;timestamp;P1;durP1;ratioP1;P2;durP2;ratioP2
63699;SDS011;49845;47.130;142.766;2022-12-05T00:00:30;6.68;;;2.88;;
63699;SDS011;49845;47.130;142.766;2022-12-05T00:03:07;8.75;;;3.72;;
63699;SDS011;49845;47.130;142.766;2022-12-05T00:05:49;5.20;;;2.83;;
63699;SDS011;49845;47.130;142.766;2022-12-05T00:08:36;9.50;;;3.20;;
63699;SDS011;49845;47.130;142.766;2022-12-05T00:11:27;6.20;;;2.63;;
63699;SDS011;49845;47.130;142.766;2022-12-05T00:14:33;7.88;;;2.95;;
63699;SDS011;49845;47.130;142.766;2022-12-05T00:17:20;9.70;;;2.90;;
63699;SDS011;49845;47.130;142.766;2022-12-05T00:20:08;8.93;;;2.97;;
63699;SDS011;49845;47.130;142.766;2022-12-05T00:22:43;5.25;;;3.17;;
63699;SDS011;49845;47.130;142.766;2022-12-05T00:25:26;4.75;;;3.00;;
63699;SDS011;49845;47.130;142.766;2022-12-05T00:28:12;5.60;;;2.80;;
63699;SDS011;49845;47.130;142.766;2022-12-05T00:31:01;6.72;;;2.75;;
63699;SDS011;49845;47.130;142.766;2022-12-05T00:33:54;5.43;;;2.75;;
63699;SDS011;49845;47.130;142.766;2022-12-05T00:36:49;5.47;;;2.90;;
63699;SDS011;49845;47.130;142.766;2022-12-05T00:39:38;6.40;;;2.80;;
63699;SDS011;49845;47.130;142.766;2022-12-05T00:42:37;8.25;;;3.60;;
63699;SDS011;49845;47.130;142.766;2022-12-05T00:45:18;9.63;;;3.83;;
63699;SDS011;49845;47.130;142.766;2022-12-05T00:48:01;8.55;;;3.75;;
63699;SDS011;49845;47.130;142.766;2022-12-05T00:50:47;10.45;;;4.00;;
63699;SDS011;49845;47.130;142.766;2022-12-05T00:53:57;6.75;;;3.30;;
63699;SDS011;49845;47.130;142.766;2022-12-05T00:56:39;8.88;;;4.50;;
63699;SDS011;49845;47.130;142.766;2022-12-05T00:59:29;14.40;;;5.82;;
63699;SDS011;49845;47.130;142.766;2022-12-05T01:02:10;13.63;;;5.78;;
63699;SDS011;49845;47.130;142.766;2022-12-05T01:04:48;9.63;;;3.40;;
63699;SDS011;49845;47.130;142.766;2022-12-05T01:10:54;7.43;;;3.28;;
63699;SDS011;49845;47.130;142.766;2022-12-05T01:13:48;9.18;;;3.25;;
63699;SDS011;49845;47.130;142.766;2022-12-05T01:16:41;6.05;;;2.78;;
63699;SDS011;49845;47.130;142.766;2022-12-05T01:19:38;5.57;;;3.17;;
63699;SDS011;49845;47.130;142.766;2022-12-05T01:22:18;5.65;;;2.70;;
63699;SDS011;49845;47.130;142.766;2022-12-05T01:25:13;5.75;;;2.80;;
63699;SDS011;49845;47.130;142.766;2022-12-05T01:28:10;4.80;;;2.60;;
63699;SDS011;49845;47.130;142.766;2022-12-05T01:30:58;7.72;;;3.28;;
63699;SDS011;49845;47.130;142.766;2022-12-05T01:33:56;6.00;;;2.38;;
63699;SDS011;49845;47.130;142.766;2022-12-05T01:36:37;4.45;;;2.70;;
63699;SDS011;49845;47.130;142.766;2022-12-05T01:39:28;4.63;;;2.17;;
63699;SDS011;49845;47.130;142.766;2022-12-05T01:42:10;6.70;;;2.85;;
63699;SDS011;49845;47.130;142.766;2022-12-05T01:45:03;6.45;;;2.42;;
63699;SDS011;49845;47.130;142.766;2022-12-05T01:47:47;8.40;;;2.25;;
63699;SDS011;49845;47.130;142.766;2022-12-05T01:50:31;6.13;;;2.17;;
63699;SDS011;49845;47.130;142.766;2022-12-05T01:53:18;4.88;;;1.85;;
63699;SDS011;49845;47.130;142.766;2022-12-05T01:56:12;5.05;;;2.28;;
63699;SDS011;49845;47.130;142.766;2022-12-05T01:58:54;10.80;;;2.67;;
63699;SDS011;49845;47.130;142.766;2022-12-05T02:01:39;3.75;;;1.95;;
63699;SDS011;49845;47.130;142.766;2022-12-05T02:04:40;5.25;;;2.05;;
63699;SDS011;49845;47.130;142.766;2022-12-05T02:07:28;5.15;;;1.98;;
63699;SDS011;49845;47.130;142.766;2022-12-05T02:10:24;5.63;;;2.10;;
63699;SDS011;49845;47.130;142.766;2022-12-05T02:16:29;7.13;;;2.50;;
63699;SDS011;49845;47.130;142.766;2022-12-05T02:22:48;3.45;;;1.90;;
63699;SDS011;49845;47.130;142.766;2022-12-05T02:25:59;9.18;;;2.08;;
63699;SDS011;49845;47.130;142.766;2022-12-05T02:32:37;4.57;;;2.33;;
63699;SDS011;49845;47.130;142.766;2022-12-05T02:35:53;5.07;;;2.28;;
63699;SDS011;49845;47.130;142.766;2022-12-05T02:38:43;4.60;;;1.95;;
63699;SDS011;49845;47.130;142.766;2022-12-05T02:41:47;3.28;;;2.10;;
63699;SDS011;49845;47.130;142.766;2022-12-05T02:44:29;6.40;;;1.80;;
63699;SDS011;49845;47.130;142.766;2022-12-05T02:50:27;5.35;;;1.92;;
63699;SDS011;49845;47.130;142.766;2022-12-05T02:53:16;3.60;;;1.90;;
63699;SDS011;49845;47.130;142.766;2022-12-05T02:56:17;4.00;;;1.98;;
63699;SDS011;49845;47.130;142.766;2022-12-05T02:59:02;4.07;;;1.90;;
63699;SDS011;49845;47.130;142.766;2022-12-05T03:05:50;8.88;;;2.70;;
63699;SDS011;49845;47.130;142.766;2022-12-05T03:08:59;7.30;;;2.42;;
63699;SDS011;49845;47.130;142.766;2022-12-05T03:11:40;4.30;;;2.25;;
63699;SDS011;49845;47.130;142.766;2022-12-05T03:14:24;7.70;;;2.25;;
63699;SDS011;49845;47.130;142.766;2022-12-05T03:17:12;4.55;;;1.83;;
63699;SDS011;49845;47.130;142.766;2022-12-05T03:20:02;7.13;;;2.03;;
63699;SDS011;49845;47.130;142.766;2022-12-05T03:25:51;4.45;;;2.53;;
63699;SDS011;49845;47.130;142.766;2022-12-05T03:29:03;6.35;;;2.00;;
63699;SDS011;49845;47.130;142.766;2022-12-05T03:32:40;6.53;;;2.22;;
63699;SDS011;49845;47.130;142.766;2022-12-05T03:35:51;3.72;;;2.08;;
63699;SDS011;49845;47.130;142.766;2022-12-05T03:39:04;4.95;;;2.05;;
63699;SDS011;49845;47.130;142.766;2022-12-05T03:41:56;4.55;;;2.00;;
63699;SDS011;49845;47.130;142.766;2022-12-05T03:45:08;4.35;;;2.38;;
63699;SDS011;49845;47.130;142.766;2022-12-05T03:48:18;7.30;;;2.33;;
63699;SDS011;49845;47.130;142.766;2022-12-05T03:51:30;3.03;;;1.98;;
63699;SDS011;49845;47.130;142.766;2022-12-05T03:54:35;3.08;;;2.10;;
63699;SDS011;49845;47.130;142.766;2022-12-05T03:57:41;4.20;;;2.10;;
63699;SDS011;49845;47.130;142.766;2022-12-05T04:00:48;4.20;;;1.90;;
63699;SDS011;49845;47.130;142.766;2022-12-05T04:03:47;4.80;;;1.92;;
63699;SDS011;49845;47.130;142.766;2022-12-05T04:06:45;4.97;;;2.00;;
63699;SDS011;49845;47.130;142.766;2022-12-05T04:09:59;4.43;;;2.05;;
63699;SDS011;49845;47.130;142.766;2022-12-05T04:12:59;4.22;;;1.77;;
63699;SDS011;49845;47.130;142.766;2022-12-05T04:16:02;2.88;;;1.90;;
63699;SDS011;49845;47.130;142.766;2022-12-05T04:19:22;4.50;;;1.83;;
63699;SDS011;49845;47.130;142.766;2022-12-05T04:22:26;3.63;;;2.10;;
63699;SDS011;49845;47.130;142.766;2022-12-05T04:25:38;7.38;;;2.70;;
63699;SDS011;49845;47.130;142.766;2022-12-05T04:28:45;3.50;;;1.90;;
63699;SDS011;49845;47.130;142.766;2022-12-05T04:31:38;3.92;;;1.80;;
63699;SDS011;49845;47.130;142.766;2022-12-05T04:34:37;5.90;;;2.00;;
63699;SDS011;49845;47.130;142.766;2022-12-05T04:37:31;3.45;;;1.63;;
63699;SDS011;49845;47.130;142.766;2022-12-05T04:40:43;5.88;;;2.00;;
63699;SDS011;49845;47.130;142.766;2022-12-05T04:47:01;5.10;;;2.30;;
63699;SDS011;49845;47.130;142.766;2022-12-05T04:50:03;4.47;;;1.90;;
63699;SDS011;49845;47.130;142.766;2022-12-05T04:53:05;7.32;;;2.20;;
63699;SDS011;49845;47.130;142.766;2022-12-05T04:56:09;2.92;;;1.73;;
63699;SDS011;49845;47.130;142.766;2022-12-05T04:59:39;7.20;;;2.05;;
63699;SDS011;49845;47.130;142.766;2022-12-05T05:02:30;2.63;;;2.30;;
63699;SDS011;49845;47.130;142.766;2022-12-05T05:05:27;3.47;;;1.80;;
63699;SDS011;49845;47.130;142.766;2022-12-05T05:08:15;5.22;;;2.10;;
63699;SDS011;49845;47.130;142.766;2022-12-05T05:11:05;3.35;;;1.98;;
63699;SDS011;49845;47.130;142.766;2022-12-05T05:14:05;5.93;;;2.28;;
63699;SDS011;49845;47.130;142.766;2022-12-05T05:16:54;3.75;;;1.98;;
63699;SDS011;49845;47.130;142.766;2022-12-05T05:19:45;3.80;;;2.22;;
63699;SDS011;49845;47.130;142.766;2022-12-05T05:22:53;4.10;;;2.13;;
63699;SDS011;49845;47.130;142.766;2022-12-05T05:26:13;6.13;;;2.28;;
63699;SDS011;49845;47.130;142.766;2022-12-05T05:29:20;8.50;;;2.50;;
63699;SDS011;49845;47.130;142.766;2022-12-05T05:32:12;5.18;;;2.75;;
63699;SDS011;49845;47.130;142.766;2022-12-05T05:35:09;4.68;;;2.60;;
63699;SDS011;49845;47.130;142.766;2022-12-05T05:37:50;4.60;;;2.25;;
63699;SDS011;49845;47.130;142.766;2022-12-05T05:40:36;4.63;;;2.20;;
63699;SDS011;49845;47.130;142.766;2022-12-05T05:43:24;6.80;;;2.20;;
63699;SDS011;49845;47.130;142.766;2022-12-05T05:46:08;6.95;;;2.17;;
63699;SDS011;49845;47.130;142.766;2022-12-05T05:49:01;4.00;;;2.17;;
63699;SDS011;49845;47.130;142.766;2022-12-05T05:51:39;4.65;;;2.00;;
63699;SDS011;49845;47.130;142.766;2022-12-05T05:54:36;3.92;;;2.03;;
63699;SDS011;49845;47.130;142.766;2022-12-05T05:57:23;7.53;;;2.78;;
63699;SDS011;49845;47.130;142.766;2022-12-05T06:00:24;2.92;;;2.05;;
63699;SDS011;49845;47.130;142.766;2022-12-05T06:03:31;5.00;;;2.67;;
63699;SDS011;49845;47.130;142.766;2022-12-05T06:06:39;9.43;;;2.90;;
63699;SDS011;49845;47.130;142.766;2022-12-05T06:09:35;5.75;;;2.40;;
63699;SDS011;49845;47.130;142.766;2022-12-05T06:12:48;5.90;;;2.75;;
63699;SDS011;49845;47.130;142.766;2022-12-05T06:18:57;3.88;;;1.95;;
63699;SDS011;49845;47.130;142.766;2022-12-05T06:21:44;7.80;;;2.60;;
63699;SDS011;49845;47.130;142.766;2022-12-05T06:24:25;4.90;;;2.72;;
63699;SDS011;49845;47.130;142.766;2022-12-05T06:27:08;8.95;;;3.90;;
63699;SDS011;49845;47.130;142.766;2022-12-05T06:29:59;7.00;;;2.90;;
63699;SDS011;49845;47.130;142.766;2022-12-05T06:33:12;3.42;;;2.30;;
63699;SDS011;49845;47.130;142.766;2022-12-05T06:36:09;9.90;;;4.38;;
63699;SDS011;49845;47.130;142.766;2022-12-05T06:38:59;6.40;;;4.20;;
63699;SDS011;49845;47.130;142.766;2022-12-05T06:41:46;6.93;;;3.40;;
63699;SDS011;49845;47.130;142.766;2022-12-05T06:44:34;11.20;;;5.95;;
63699;SDS011;49845;47.130;142.766;2022-12-05T06:47:36;5.10;;;2.88;;
63699;SDS011;49845;47.130;142.766;2022-12-05T06:50:19;7.80;;;2.78;;
63699;SDS011;49845;47.130;142.766;2022-12-05T06:53:16;4.10;;;2.30;;
63699;SDS011;49845;47.130;142.766;2022-12-05T06:56:00;4.07;;;2.45;;
63699;SDS011;49845;47.130;142.766;2022-12-05T06:58:51;4.13;;;2.47;;
63699;SDS011;49845;47.130;142.766;2022-12-05T07:01:40;4.72;;;2.40;;
63699;SDS011;49845;47.130;142.766;2022-12-05T07:04:48;5.70;;;2.45;;
63699;SDS011;49845;47.130;142.766;2022-12-05T07:08:01;4.57;;;2.70;;
63699;SDS011;49845;47.130;142.766;2022-12-05T07:14:38;9.10;;;3.20;;
63699;SDS011;49845;47.130;142.766;2022-12-05T07:17:41;8.43;;;2.67;;
63699;SDS011;49845;47.130;142.766;2022-12-05T07:21:03;6.78;;;2.58;;
63699;SDS011;49845;47.130;142.766;2022-12-05T07:24:14;6.25;;;2.80;;
63699;SDS011;49845;47.130;142.766;2022-12-05T07:27:13;10.15;;;3.65;;
63699;SDS011;49845;47.130;142.766;2022-12-05T07:30:12;13.38;;;3.95;;
63699;SDS011;49845;47.130;142.766;2022-12-05T07:33:06;5.60;;;3.58;;
63699;SDS011;49845;47.130;142.766;2022-12-05T07:35:43;6.25;;;3.10;;
63699;SDS011;49845;47.130;142.766;2022-12-05T07:38:52;4.95;;;2.75;;
63699;SDS011;49845;47.130;142.766;2022-12-05T07:45:34;6.53;;;2.83;;
63699;SDS011;49845;47.130;142.766;2022-12-05T07:48:28;9.50;;;4.78;;
63699;SDS011;49845;47.130;142.766;2022-12-05T07:51:24;8.95;;;4.28;;
63699;SDS011;49845;47.130;142.766;2022-12-05T07:54:34;8.00;;;3.88;;
63699;SDS011;49845;47.130;142.766;2022-12-05T07:57:23;5.00;;;2.60;;
63699;SDS011;49845;47.130;142.766;2022-12-05T08:00:17;5.82;;;3.20;;
63699;SDS011;49845;47.130;142.766;2022-12-05T08:03:02;10.38;;;4.30;;
63699;SDS011;49845;47.130;142.766;2022-12-05T08:05:53;6.20;;;2.80;;
63699;SDS011;49845;47.130;142.766;2022-12-05T08:08:56;12.77;;;4.65;;
63699;SDS011;49845;47.130;142.766;2022-12-05T08:11:41;16.45;;;3.53;;
63699;SDS011;49845;47.130;142.766;2022-12-05T08:14:26;7.55;;;3.55;;
63699;SDS011;49845;47.130;142.766;2022-12-05T08:17:18;9.77;;;3.40;;
63699;SDS011;49845;47.130;142.766;2022-12-05T08:19:54;8.85;;;3.55;;
63699;SDS011;49845;47.130;142.766;2022-12-05T08:23:01;16.30;;;4.60;;
63699;SDS011;49845;47.130;142.766;2022-12-05T08:25:50;15.45;;;4.60;;
63699;SDS011;49845;47.130;142.766;2022-12-05T08:29:00;13.05;;;4.60;;
63699;SDS011;49845;47.130;142.766;2022-12-05T08:31:40;6.13;;;3.13;;
63699;SDS011;49845;47.130;142.766;2022-12-05T08:34:53;6.88;;;3.00;;
63699;SDS011;49845;47.130;142.766;2022-12-05T08:37:51;10.50;;;3.55;;
63699;SDS011;49845;47.130;142.766;2022-12-05T08:41:04;11.43;;;4.78;;
63699;SDS011;49845;47.130;142.766;2022-12-05T08:44:15;9.90;;;4.25;;
63699;SDS011;49845;47.130;142.766;2022-12-05T08:53:09;8.75;;;3.13;;
63699;SDS011;49845;47.130;142.766;2022-12-05T08:59:19;4.82;;;2.85;;
63699;SDS011;49845;47.130;142.766;2022-12-05T09:05:53;3.70;;;2.38;;
63699;SDS011;49845;47.130;142.766;2022-12-05T09:09:10;4.93;;;2.30;;
63699;SDS011;49845;47.130;142.766;2022-12-05T09:12:04;5.50;;;2.58;;
63699;SDS011;49845;47.130;142.766;2022-12-05T09:14:50;3.22;;;2.10;;
63699;SDS011;49845;47.130;142.766;2022-12-05T09:17:38;2.88;;;2.20;;
63699;SDS011;49845;47.130;142.766;2022-12-05T09:20:37;3.97;;;2.50;;
63699;SDS011;49845;47.130;142.766;2022-12-05T09:23:47;5.70;;;2.42;;
63699;SDS011;49845;47.130;142.766;2022-12-05T09:26:31;5.82;;;2.75;;
63699;SDS011;49845;47.130;142.766;2022-12-05T09:29:33;5.90;;;2.90;;
63699;SDS011;49845;47.130;142.766;2022-12-05T09:32:20;13.73;;;4.40;;
63699;SDS011;49845;47.130;142.766;2022-12-05T09:35:15;17.25;;;5.90;;
63699;SDS011;49845;47.130;142.766;2022-12-05T09:38:26;9.90;;;4.25;;
63699;SDS011;49845;47.130;142.766;2022-12-05T09:41:17;4.28;;;2.42;;
63699;SDS011;49845;47.130;142.766;2022-12-05T09:44:46;3.63;;;2.10;;
63699;SDS011;49845;47.130;142.766;2022-12-05T09:47:56;5.60;;;2.00;;
63699;SDS011;49845;47.130;142.766;2022-12-05T09:51:20;5.57;;;2.17;;
63699;SDS011;49845;47.130;142.766;2022-12-05T09:54:45;8.90;;;2.75;;
63699;SDS011;49845;47.130;142.766;2022-12-05T09:57:39;5.35;;;2.50;;
63699;SDS011;49845;47.130;142.766;2022-12-05T10:00:45;6.30;;;2.38;;
63699;SDS011;49845;47.130;142.766;2022-12-05T10:03:58;12.38;;;4.28;;
63699;SDS011;49845;47.130;142.766;2022-12-05T10:07:14;6.43;;;2.33;;
63699;SDS011;49845;47.130;142.766;2022-12-05T10:10:07;6.00;;;2.58;;
63699;SDS011;49845;47.130;142.766;2022-12-05T10:13:20;15.55;;;4.28;;
63699;SDS011;49845;47.130;142.766;2022-12-05T10:16:28;29.17;;;9.27;;
63699;SDS011;49845;47.130;142.766;2022-12-05T10:19:55;37.35;;;9.77;;
63699;SDS011;49845;47.130;142.766;2022-12-05T10:22:57;39.75;;;9.90;;
63699;SDS011;49845;47.130;142.766;2022-12-05T10:26:26;43.45;;;10.32;;
63699;SDS011;49845;47.130;142.766;2022-12-05T10:29:22;34.83;;;9.80;;
63699;SDS011;49845;47.130;142.766;2022-12-05T10:32:10;40.85;;;12.90;;
63699;SDS011;49845;47.130;142.766;2022-12-05T10:35:13;30.13;;;8.50;;
63699;SDS011;49845;47.130;142.766;2022-12-05T10:38:21;33.88;;;9.50;;
63699;SDS011;49845;47.130;142.766;2022-12-05T10:41:08;32.90;;;7.88;;
63699;SDS011;49845;47.130;142.766;2022-12-05T10:43:59;21.20;;;5.00;;
63699;SDS011;49845;47.130;142.766;2022-12-05T10:46:48;9.00;;;3.53;;
63699;SDS011;49845;47.130;142.766;2022-12-05T10:49:34;6.03;;;3.10;;
63699;SDS011;49845;47.130;142.766;2022-12-05T10:52:32;3.97;;;2.40;;
63699;SDS011;49845;47.130;142.766;2022-12-05T10:58:46;12.70;;;3.40;;
63699;SDS011;49845;47.130;142.766;2022-12-05T11:01:53;21.25;;;5.50;;
63699;SDS011;49845;47.130;142.766;2022-12-05T11:04:43;25.50;;;6.63;;
63699;SDS011;49845;47.130;142.766;2022-12-05T11:07:44;21.60;;;5.88;;
63699;SDS011;49845;47.130;142.766;2022-12-05T11:10:30;20.35;;;5.97;;
63699;SDS011;49845;47.130;142.766;2022-12-05T11:13:52;10.48;;;2.97;;
63699;SDS011;49845;47.130;142.766;2022-12-05T11:16:50;8.73;;;3.30;;
63699;SDS011;49845;47.130;142.766;2022-12-05T11:20:42;19.33;;;5.00;;
63699;SDS011;49845;47.130;142.766;2022-12-05T11:23:25;8.07;;;2.97;;
63699;SDS011;49845;47.130;142.766;2022-12-05T11:26:36;6.82;;;2.38;;
63699;SDS011;49845;47.130;142.766;2022-12-05T11:32:43;6.18;;;2.40;;
63699;SDS011;49845;47.130;142.766;2022-12-05T11:35:26;5.97;;;2.47;;
63699;SDS011;49845;47.130;142.766;2022-12-05T11:44:35;4.32;;;2.50;;
63699;SDS011;49845;47.130;142.766;2022-12-05T11:51:20;3.85;;;2.38;;
63699;SDS011;49845;47.130;142.766;2022-12-05T11:54:41;7.70;;;2.33;;
63699;SDS011;49845;47.130;142.766;2022-12-05T12:00:54;3.90;;;2.03;;
63699;SDS011;49845;47.130;142.766;2022-12-05T12:04:04;4.20;;;2.13;;
63699;SDS011;49845;47.130;142.766;2022-12-05T12:07:18;6.20;;;1.88;;
63699;SDS011;49845;47.130;142.766;2022-12-05T12:10:46;3.20;;;1.75;;
63699;SDS011;49845;47.130;142.766;2022-12-05T12:13:54;3.03;;;1.95;;
63699;SDS011;49845;47.130;142.766;2022-12-05T12:16:48;11.40;;;4.07;;
63699;SDS011;49845;47.130;142.766;2022-12-05T12:19:46;6.97;;;2.50;;
63699;SDS011;49845;47.130;142.766;2022-12-05T12:23:08;4.35;;;2.10;;
63699;SDS011;49845;47.130;142.766;2022-12-05T12:26:19;6.60;;;3.28;;
63699;SDS011;49845;47.130;142.766;2022-12-05T12:29:26;8.02;;;3.10;;
63699;SDS011;49845;47.130;142.766;2022-12-05T12:36:37;5.82;;;2.47;;
63699;SDS011;49845;47.130;142.766;2022-12-05T12:39:26;10.82;;;2.65;;
63699;SDS011;49845;47.130;142.766;2022-12-05T12:42:19;4.65;;;1.90;;
63699;SDS011;49845;47.130;142.766;2022-12-05T12:48:59;9.10;;;3.33;;
63699;SDS011;49845;47.130;142.766;2022-12-05T12:52:23;9.25;;;2.85;;
63699;SDS011;49845;47.130;142.766;2022-12-05T12:55:29;6.18;;;2.15;;
63699;SDS011;49845;47.130;142.766;2022-12-05T12:58:38;2.72;;;2.33;;
63699;SDS011;49845;47.130;142.766;2022-12-05T13:01:36;4.22;;;2.20;;
63699;SDS011;49845;47.130;142.766;2022-12-05T13:04:28;8.43;;;3.13;;
63699;SDS011;49845;47.130;142.766;2022-12-05T13:07:47;3.42;;;2.25;;
63699;SDS011;49845;47.130;142.766;2022-12-05T13:10:48;5.32;;;1.95;;
63699;SDS011;49845;47.130;142.766;2022-12-05T13:13:33;4.20;;;2.25;;
63699;SDS011;49845;47.130;142.766;2022-12-05T13:16:38;2.80;;;2.05;;
63699;SDS011;49845;47.130;142.766;2022-12-05T13:22:32;4.72;;;2.28;;
63699;SDS011;49845;47.130;142.766;2022-12-05T13:25:35;4.35;;;2.55;;
63699;SDS011;49845;47.130;142.766;2022-12-05T13:28:46;5.25;;;2.42;;
63699;SDS011;49845;47.130;142.766;2022-12-05T13:34:47;2.75;;;1.90;;
63699;SDS011;49845;47.130;142.766;2022-12-05T13:37:31;5.90;;;2.35;;
63699;SDS011;49845;47.130;142.766;2022-12-05T13:40:49;4.85;;;2.25;;
63699;SDS011;49845;47.130;142.766;2022-12-05T13:43:44;4.38;;;2.05;;
63699;SDS011;49845;47.130;142.766;2022-12-05T13:46:34;5.05;;;2.22;;
63699;SDS011;49845;47.130;142.766;2022-12-05T13:49:18;4.22;;;2.65;;
63699;SDS011;49845;47.130;142.766;2022-12-05T13:52:24;4.15;;;2.30;;
63699;SDS011;49845;47.130;142.766;2022-12-05T13:55:18;12.13;;;2.50;;
63699;SDS011;49845;47.130;142.766;2022-12-05T14:04:58;4.13;;;2.00;;
63699;SDS011;49845;47.130;142.766;2022-12-05T14:18:41;4.63;;;2.08;;
63699;SDS011;49845;47.130;142.766;2022-12-05T14:21:35;6.65;;;2.00;;
63699;SDS011;49845;47.130;142.766;2022-12-05T14:24:45;3.70;;;1.85;;
63699;SDS011;49845;47.130;142.766;2022-12-05T14:27:47;3.45;;;1.75;;
63699;SDS011;49845;47.130;142.766;2022-12-05T14:30:46;4.13;;;1.98;;
63699;SDS011;49845;47.130;142.766;2022-12-05T14:37:25;4.97;;;1.90;;
63699;SDS011;49845;47.130;142.766;2022-12-05T14:40:20;6.63;;;2.10;;
63699;SDS011;49845;47.130;142.766;2022-12-05T14:43:18;2.15;;;1.40;;
63699;SDS011;49845;47.130;142.766;2022-12-05T14:46:19;3.53;;;1.77;;
63699;SDS011;49845;47.130;142.766;2022-12-05T14:56:23;4.45;;;1.83;;
63699;SDS011;49845;47.130;142.766;2022-12-05T15:02:31;8.70;;;2.20;;
63699;SDS011;49845;47.130;142.766;2022-12-05T15:05:38;5.47;;;2.20;;
63699;SDS011;49845;47.130;142.766;2022-12-05T15:08:42;5.20;;;1.83;;
63699;SDS011;49845;47.130;142.766;2022-12-05T15:11:50;5.55;;;1.80;;
63699;SDS011;49845;47.130;142.766;2022-12-05T15:14:46;2.25;;;1.52;;
63699;SDS011;49845;47.130;142.766;2022-12-05T15:17:36;5.22;;;1.80;;
63699;SDS011;49845;47.130;142.766;2022-12-05T15:20:23;4.32;;;1.80;;
63699;SDS011;49845;47.130;142.766;2022-12-05T15:26:25;3.83;;;1.90;;
63699;SDS011;49845;47.130;142.766;2022-12-05T15:29:22;7.38;;;1.90;;
63699;SDS011;49845;47.130;142.766;2022-12-05T15:32:20;5.38;;;1.90;;
63699;SDS011;49845;47.130;142.766;2022-12-05T15:35:17;8.00;;;1.95;;
63699;SDS011;49845;47.130;142.766;2022-12-05T15:37:58;3.78;;;1.73;;
63699;SDS011;49845;47.130;142.766;2022-12-05T15:40:54;3.38;;;1.60;;
63699;SDS011;49845;47.130;142.766;2022-12-05T15:43:32;3.33;;;1.90;;
63699;SDS011;49845;47.130;142.766;2022-12-05T15:46:22;4.57;;;1.70;;
63699;SDS011;49845;47.130;142.766;2022-12-05T15:52:26;7.25;;;1.80;;
63699;SDS011;49845;47.130;142.766;2022-12-05T15:55:21;2.83;;;1.73;;
63699;SDS011;49845;47.130;142.766;2022-12-05T15:58:22;4.28;;;1.80;;
63699;SDS011;49845;47.130;142.766;2022-12-05T16:01:11;3.75;;;2.03;;
63699;SDS011;49845;47.130;142.766;2022-12-05T16:04:11;7.18;;;1.90;;
63699;SDS011;49845;47.130;142.766;2022-12-05T16:07:23;3.42;;;1.50;;
63699;SDS011;49845;47.130;142.766;2022-12-05T16:10:04;3.92;;;1.80;;
63699;SDS011;49845;47.130;142.766;2022-12-05T16:13:04;6.95;;;1.88;;
63699;SDS011;49845;47.130;142.766;2022-12-05T16:15:54;8.82;;;2.15;;
63699;SDS011;49845;47.130;142.766;2022-12-05T16:18:47;3.17;;;1.63;;
63699;SDS011;49845;47.130;142.766;2022-12-05T16:21:42;4.10;;;1.67;;
63699;SDS011;49845;47.130;142.766;2022-12-05T16:24:44;5.63;;;1.90;;
63699;SDS011;49845;47.130;142.766;2022-12-05T16:27:39;2.53;;;2.03;;
63699;SDS011;49845;47.130;142.766;2022-12-05T16:30:34;2.95;;;1.67;;
63699;SDS011;49845;47.130;142.766;2022-12-05T16:33:29;3.17;;;1.55;;
63699;SDS011;49845;47.130;142.766;2022-12-05T16:36:31;7.63;;;1.92;;
63699;SDS011;49845;47.130;142.766;2022-12-05T16:39:22;4.22;;;2.00;;
63699;SDS011;49845;47.130;142.766;2022-12-05T16:42:53;2.97;;;1.70;;
63699;SDS011;49845;47.130;142.766;2022-12-05T16:46:06;7.15;;;2.10;;
63699;SDS011;49845;47.130;142.766;2022-12-05T16:49:33;2.92;;;1.45;;
63699;SDS011;49845;47.130;142.766;2022-12-05T16:52:22;4.43;;;1.48;;
63699;SDS011;49845;47.130;142.766;2022-12-05T16:55:10;3.25;;;1.67;;
63699;SDS011;49845;47.130;142.766;2022-12-05T16:58:09;2.70;;;1.77;;
63699;SDS011;49845;47.130;142.766;2022-12-05T17:01:05;8.45;;;1.75;;
63699;SDS011;49845;47.130;142.766;2022-12-05T17:04:07;3.45;;;1.83;;
63699;SDS011;49845;47.130;142.766;2022-12-05T17:06:45;6.80;;;1.70;;
63699;SDS011;49845;47.130;142.766;2022-12-05T17:09:31;2.60;;;1.58;;
63699;SDS011;49845;47.130;142.766;2022-12-05T17:12:16;5.38;;;1.98;;
63699;SDS011;49845;47.130;142.766;2022-12-05T17:15:04;4.70;;;1.70;;
63699;SDS011;49845;47.130;142.766;2022-12-05T17:18:10;8.60;;;1.73;;
63699;SDS011;49845;47.130;142.766;2022-12-05T17:21:00;3.63;;;1.80;;
63699;SDS011;49845;47.130;142.766;2022-12-05T17:23:38;4.40;;;1.65;;
63699;SDS011;49845;47.130;142.766;2022-12-05T17:26:26;5.85;;;1.98;;
63699;SDS011;49845;47.130;142.766;2022-12-05T17:29:09;1.67;;;1.30;;
63699;SDS011;49845;47.130;142.766;2022-12-05T17:32:09;2.90;;;1.58;;
63699;SDS011;49845;47.130;142.766;2022-12-05T17:34:51;7.97;;;1.70;;
63699;SDS011;49845;47.130;142.766;2022-12-05T17:37:43;3.50;;;1.80;;
63699;SDS011;49845;47.130;142.766;2022-12-05T17:40:35;5.75;;;1.70;;
63699;SDS011;49845;47.130;142.766;2022-12-05T17:43:19;5.60;;;1.80;;
63699;SDS011;49845;47.130;142.766;2022-12-05T17:46:25;4.25;;;1.85;;
63699;SDS011;49845;47.130;142.766;2022-12-05T17:49:13;4.28;;;1.75;;
63699;SDS011;49845;47.130;142.766;2022-12-05T17:52:12;3.33;;;1.67;;
63699;SDS011;49845;47.130;142.766;2022-12-05T17:55:02;3.80;;;1.90;;
63699;SDS011;49845;47.130;142.766;2022-12-05T17:58:11;2.33;;;1.45;;
63699;SDS011;49845;47.130;142.766;2022-12-05T18:00:51;4.40;;;1.58;;
63699;SDS011;49845;47.130;142.766;2022-12-05T18:03:40;4.13;;;1.70;;
63699;SDS011;49845;47.130;142.766;2022-12-05T18:06:28;6.13;;;2.10;;
63699;SDS011;49845;47.130;142.766;2022-12-05T18:09:19;4.65;;;1.80;;
63699;SDS011;49845;47.130;142.766;2022-12-05T18:12:09;2.95;;;1.60;;
63699;SDS011;49845;47.130;142.766;2022-12-05T18:15:06;3.75;;;1.73;;
63699;SDS011;49845;47.130;142.766;2022-12-05T18:18:11;4.22;;;1.55;;
63699;SDS011;49845;47.130;142.766;2022-12-05T18:21:28;4.82;;;1.60;;
63699;SDS011;49845;47.130;142.766;2022-12-05T18:24:23;4.25;;;1.75;;
63699;SDS011;49845;47.130;142.766;2022-12-05T18:27:11;9.05;;;2.50;;
63699;SDS011;49845;47.130;142.766;2022-12-05T18:30:18;3.20;;;2.10;;
63699;SDS011;49845;47.130;142.766;2022-12-05T18:33:40;5.07;;;2.00;;
63699;SDS011;49845;47.130;142.766;2022-12-05T18:36:19;5.68;;;1.77;;
63699;SDS011;49845;47.130;142.766;2022-12-05T18:39:16;3.72;;;1.60;;
63699;SDS011;49845;47.130;142.766;2022-12-05T18:42:26;10.80;;;1.52;;
63699;SDS011;49845;47.130;142.766;2022-12-05T18:45:10;3.08;;;1.70;;
63699;SDS011;49845;47.130;142.766;2022-12-05T18:47:50;3.78;;;1.98;;
63699;SDS011;49845;47.130;142.766;2022-12-05T18:50:52;2.38;;;1.63;;
63699;SDS011;49845;47.130;142.766;2022-12-05T18:53:29;6.35;;;2.10;;
63699;SDS011;49845;47.130;142.766;2022-12-05T18:56:29;3.45;;;1.70;;
63699;SDS011;49845;47.130;142.766;2022-12-05T18:59:37;2.33;;;1.58;;
63699;SDS011;49845;47.130;142.766;2022-12-05T19:02:15;2.85;;;1.88;;
63699;SDS011;49845;47.130;142.766;2022-12-05T19:04:53;4.53;;;1.52;;
63699;SDS011;49845;47.130;142.766;2022-12-05T19:07:31;7.28;;;1.83;;
63699;SDS011;49845;47.130;142.766;2022-12-05T19:13:12;7.82;;;1.65;;
63699;SDS011;49845;47.130;142.766;2022-12-05T19:16:04;4.80;;;2.17;;
63699;SDS011;49845;47.130;142.766;2022-12-05T19:19:03;4.93;;;1.60;;